Terminal Aerodrome Forecast
Issued by NWS

Home | Current Version | Previous Version | Text Only | Print | Product List | Glossary On
Versions: 1 2 3 4 5 6 7 8 9 10 11 12
000
FTUS42 TJSJ 181731
TAFJMZ
TAF
TJMZ 181731Z 1818/1918 23007KT P6SM VCTS SCT035CB BKN050
     FM190000 VRB05KT P6SM SCT035
     FM191200 10008KT P6SM SCT030
      AMD NOT SKED=

USA.gov is the U.S. government's official web portal to all federal, state and local government web resources and services.